Time,TemperatureF,DewpointF,PressureIn,WindDirection,WindDirectionDegrees,WindSpeedMPH,WindSpeedGustMPH,Humidity,HourlyPrecipIn,Conditions,Clouds,dailyrainin,SoftwareType,DateUTC
2013-03-31 00:02:00,55.0,50.0,29.88,South,190,3.0,5.0,84,-99.99,,,-99.99,,2013-03-31 05:02:00,
2013-03-31 00:12:00,55.0,50.0,29.88,South,190,3.0,4.0,85,-99.99,,,-99.99,,2013-03-31 05:12:00,
2013-03-31 00:22:00,55.0,50.0,29.88,South,190,3.0,4.0,85,-99.99,,,-99.99,,2013-03-31 05:22:00,
2013-03-31 00:32:00,55.0,50.0,29.88,SSW,200,5.0,6.0,85,-99.99,,,-99.99,,2013-03-31 05:32:00,
2013-03-31 00:42:00,55.0,51.0,29.88,SSW,210,4.0,4.0,85,-99.99,,,-99.99,,2013-03-31 05:42:00,
2013-03-31 00:52:00,55.0,51.0,29.88,SSW,210,4.0,4.0,85,-99.99,,,-99.99,,2013-03-31 05:52:00,
2013-03-31 01:02:00,54.0,50.0,29.88,SW,215,5.0,7.0,85,-99.99,,,-99.99,,2013-03-31 06:02:00,
2013-03-31 01:12:00,54.0,49.0,29.88,SW,220,5.0,7.0,85,-99.99,,,-99.99,,2013-03-31 06:12:00,
2013-03-31 01:22:00,54.0,49.0,29.88,SW,220,5.0,7.0,85,-99.99,,,-99.99,,2013-03-31 06:22:00,
2013-03-31 01:32:00,53.0,49.0,29.88,SW,220,4.0,6.0,86,-99.99,,,-99.99,,2013-03-31 06:32:00,
2013-03-31 01:42:00,53.0,49.0,29.87,SSW,210,4.0,6.0,86,-99.99,,,-99.99,,2013-03-31 06:42:00,
2013-03-31 01:52:00,53.0,49.0,29.87,SSW,210,4.0,6.0,86,-99.99,,,-99.99,,2013-03-31 06:52:00,
2013-03-31 02:02:00,53.0,49.0,29.86,SW,220,4.0,5.0,87,-99.99,,,-99.99,,2013-03-31 07:02:00,
2013-03-31 02:12:00,53.0,49.0,29.86,SW,225,3.0,5.0,87,-99.99,,,-99.99,,2013-03-31 07:12:00,
2013-03-31 02:22:00,53.0,49.0,29.86,SW,225,3.0,5.0,87,-99.99,,,-99.99,,2013-03-31 07:22:00,
2013-03-31 02:30:00,51.0,48.0,29.87,SW,235,3.0,4.0,89,-99.99,,,-99.99,,2013-03-31 07:30:00,
2013-03-31 02:33:00,53.0,49.0,29.87,West,260,3.0,4.0,88,-99.99,,,-99.99,,2013-03-31 07:33:00,
2013-03-31 02:42:00,52.0,49.0,29.87,West,260,3.0,5.0,88,-99.99,,,-99.99,,2013-03-31 07:42:00,
2013-03-31 02:52:00,52.0,49.0,29.87,West,260,3.0,5.0,88,-99.99,,,-99.99,,2013-03-31 07:52:00,
2013-03-31 03:02:00,51.0,48.0,29.87,SW,230,3.0,3.0,89,-99.99,,,-99.99,,2013-03-31 08:02:00,
2013-03-31 03:12:00,51.0,48.0,29.87,SW,235,3.0,4.0,89,-99.99,,,-99.99,,2013-03-31 08:12:00,
2013-03-31 03:22:00,51.0,48.0,29.87,SW,235,3.0,4.0,89,-99.99,,,-99.99,,2013-03-31 08:22:00,
2013-03-31 03:42:00,50.0,48.0,29.86,West,260,3.0,5.0,90,-99.99,,,-99.99,,2013-03-31 08:42:00,
2013-03-31 03:52:00,50.0,48.0,29.86,West,260,3.0,5.0,90,-99.99,,,-99.99,,2013-03-31 08:52:00,
2013-03-31 04:02:00,51.0,48.0,29.85,WNW,300,0.0,3.0,90,-99.99,,,-99.99,,2013-03-31 09:02:00,
2013-03-31 04:12:00,51.0,48.0,29.85,WNW,295,1.0,2.0,90,-99.99,,,-99.99,,2013-03-31 09:12:00,
2013-03-31 04:22:00,51.0,48.0,29.85,WNW,295,1.0,2.0,90,-99.99,,,-99.99,,2013-03-31 09:22:00,
2013-03-31 04:33:00,51.0,48.0,29.85,NW,315,2.0,3.0,90,-99.99,,,-99.99,,2013-03-31 09:33:00,
2013-03-31 04:42:00,51.0,49.0,29.85,NW,305,2.0,4.0,90,-99.99,,,-99.99,,2013-03-31 09:42:00,
2013-03-31 04:53:00,51.0,49.0,29.85,NW,305,2.0,4.0,90,-99.99,,,-99.99,,2013-03-31 09:53:00,
2013-03-31 05:03:00,51.0,48.0,29.84,North,10,1.0,3.0,90,-99.99,,,-99.99,,2013-03-31 10:03:00,
2013-03-31 05:13:00,51.0,48.0,29.84,NNE,25,3.0,4.0,90,-99.99,,,-99.99,,2013-03-31 10:13:00,
2013-03-31 05:24:00,51.0,48.0,29.84,NNE,25,3.0,4.0,90,-99.99,,,-99.99,,2013-03-31 10:24:00,
2013-03-31 05:32:00,51.0,48.0,29.85,NNE,15,5.0,6.0,90,-99.99,,,-99.99,,2013-03-31 10:32:00,
2013-03-31 05:42:00,51.0,48.0,29.86,NNE,25,6.0,8.0,90,-99.99,,,-99.99,,2013-03-31 10:42:00,
2013-03-31 05:52:00,51.0,48.0,29.86,NNE,25,6.0,8.0,90,-99.99,,,-99.99,,2013-03-31 10:52:00,
2013-03-31 06:02:00,51.0,48.0,29.86,NNE,20,9.0,12.0,90,-99.99,,,-99.99,,2013-03-31 11:02:00,
2013-03-31 06:12:00,51.0,49.0,29.86,NNE,30,12.0,14.0,90,-99.99,,,-99.99,,2013-03-31 11:12:00,
2013-03-31 06:23:00,51.0,49.0,29.86,NNE,30,12.0,14.0,90,-99.99,,,-99.99,,2013-03-31 11:23:00,
2013-03-31 06:32:00,53.0,50.0,29.89,North,0,19.0,33.0,91,-99.99,,,-99.99,,2013-03-31 11:32:00,
2013-03-31 06:42:00,53.0,50.0,29.90,North,0,12.0,26.0,90,-99.99,,,-99.99,,2013-03-31 11:42:00,
2013-03-31 06:52:00,53.0,50.0,29.90,North,0,12.0,26.0,90,-99.99,,,-99.99,,2013-03-31 11:52:00,
2013-03-31 07:00:00,52.0,48.0,29.92,West,275,3.0,7.0,87,-99.99,,,-99.99,,2013-03-31 12:00:00,
2013-03-31 07:03:00,53.0,50.0,29.91,North,0,12.0,19.0,90,-99.99,,,-99.99,,2013-03-31 12:03:00,
2013-03-31 07:12:00,52.0,49.0,29.92,North,0,9.0,15.0,90,-99.99,,,-99.99,,2013-03-31 12:12:00,
2013-03-31 07:22:00,52.0,49.0,29.92,North,0,9.0,15.0,90,-99.99,,,-99.99,,2013-03-31 12:22:00,
2013-03-31 07:33:00,52.0,48.0,29.92,North,5,6.0,12.0,87,-99.99,,,-99.99,,2013-03-31 12:33:00,
2013-03-31 07:42:00,52.0,48.0,29.92,West,275,3.0,7.0,87,-99.99,,,-99.99,,2013-03-31 12:42:00,
2013-03-31 07:52:00,52.0,48.0,29.92,West,275,3.0,7.0,87,-99.99,,,-99.99,,2013-03-31 12:52:00,
2013-03-31 08:00:00,53.0,48.0,29.92,NE,35,3.0,6.0,84,-99.99,,,-99.99,,2013-03-31 13:00:00,
2013-03-31 08:12:00,52.0,47.0,29.92,North,0,5.0,10.0,84,-99.99,,,-99.99,,2013-03-31 13:12:00,
2013-03-31 08:22:00,52.0,47.0,29.92,North,0,5.0,10.0,84,-99.99,,,-99.99,,2013-03-31 13:22:00,
2013-03-31 08:32:00,52.0,48.0,29.92,North,10,6.0,7.0,84,-99.99,,,-99.99,,2013-03-31 13:32:00,
2013-03-31 08:42:00,53.0,48.0,29.92,NE,35,3.0,6.0,84,-99.99,,,-99.99,,2013-03-31 13:42:00,
2013-03-31 08:52:00,53.0,48.0,29.92,NE,35,3.0,6.0,84,-99.99,,,-99.99,,2013-03-31 13:52:00,
2013-03-31 09:12:00,53.0,49.0,29.89,East,90,0.0,3.0,85,-99.99,,,-99.99,,2013-03-31 14:12:00,
2013-03-31 09:22:00,53.0,49.0,29.89,East,90,0.0,3.0,85,-99.99,,,-99.99,,2013-03-31 14:22:00,
2013-03-31 09:32:00,55.0,50.0,29.91,NW,305,2.0,3.0,85,-99.99,,,-99.99,,2013-03-31 14:32:00,
2013-03-31 09:42:00,55.0,50.0,29.92,SW,230,2.0,3.0,84,-99.99,,,-99.99,,2013-03-31 14:42:00,
2013-03-31 09:52:00,55.0,50.0,29.92,SW,230,2.0,3.0,84,-99.99,,,-99.99,,2013-03-31 14:52:00,
2013-03-31 10:03:00,56.0,49.0,29.91,SW,225,2.0,4.0,77,-99.99,,,-99.99,,2013-03-31 15:03:00,
2013-03-31 10:13:00,58.0,48.0,29.90,North,355,1.0,2.0,69,-99.99,,,-99.99,,2013-03-31 15:13:00,
2013-03-31 10:22:00,58.0,48.0,29.90,North,355,1.0,2.0,69,-99.99,,,-99.99,,2013-03-31 15:22:00,
2013-03-31 10:33:00,58.0,47.0,29.90,North,5,1.0,5.0,66,-99.99,,,-99.99,,2013-03-31 15:33:00,
2013-03-31 10:43:00,59.0,45.0,29.90,NE,45,2.0,5.0,61,-99.99,,,-99.99,,2013-03-31 15:43:00,
2013-03-31 10:53:00,59.0,45.0,29.90,NE,45,2.0,5.0,61,-99.99,,,-99.99,,2013-03-31 15:53:00,
2013-03-31 11:03:00,60.0,44.0,29.90,North,10,3.0,7.0,56,-99.99,,,-99.99,,2013-03-31 16:03:00,
2013-03-31 11:13:00,59.0,44.0,29.90,NE,40,3.0,7.0,57,-99.99,,,-99.99,,2013-03-31 16:13:00,
2013-03-31 11:23:00,59.0,44.0,29.90,NE,40,3.0,7.0,57,-99.99,,,-99.99,,2013-03-31 16:23:00,
2013-03-31 11:33:00,60.0,44.0,29.90,West,275,4.0,12.0,55,-99.99,,,-99.99,,2013-03-31 16:33:00,
2013-03-31 11:43:00,61.0,43.0,29.90,SSE,155,1.0,9.0,53,-99.99,,,-99.99,,2013-03-31 16:43:00,
2013-03-31 11:53:00,61.0,43.0,29.90,SSE,155,1.0,9.0,53,-99.99,,,-99.99,,2013-03-31 16:53:00,
2013-03-31 12:03:00,61.0,44.0,29.91,NW,320,5.0,11.0,54,-99.99,,,-99.99,,2013-03-31 17:03:00,
2013-03-31 12:12:00,62.0,43.0,29.91,NNW,330,5.0,11.0,50,-99.99,,,-99.99,,2013-03-31 17:12:00,
2013-03-31 12:20:00,63.0,42.0,29.91,NW,320,4.0,10.0,46,-99.99,,,-99.99,,2013-03-31 17:20:00,
2013-03-31 12:23:00,62.0,43.0,29.91,NNW,330,5.0,11.0,50,-99.99,,,-99.99,,2013-03-31 17:23:00,
2013-03-31 12:32:00,62.0,43.0,29.92,SW,235,4.0,8.0,51,-99.99,,,-99.99,,2013-03-31 17:32:00,
2013-03-31 12:43:00,63.0,43.0,29.92,West,280,6.0,11.0,49,-99.99,,,-99.99,,2013-03-31 17:43:00,
2013-03-31 12:52:00,63.0,43.0,29.92,West,280,6.0,11.0,49,-99.99,,,-99.99,,2013-03-31 17:52:00,
2013-03-31 13:03:00,63.0,42.0,29.91,NW,320,4.0,10.0,46,-99.99,,,-99.99,,2013-03-31 18:03:00,
2013-03-31 13:13:00,63.0,42.0,29.91,NW,320,4.0,10.0,46,-99.99,,,-99.99,,2013-03-31 18:13:00,
2013-03-31 13:32:00,64.0,43.0,29.91,NNW,345,9.0,12.0,47,-99.99,,,-99.99,,2013-03-31 18:32:00,
2013-03-31 13:42:00,63.0,40.0,29.91,SW,235,3.0,12.0,42,-99.99,,,-99.99,,2013-03-31 18:42:00,
2013-03-31 13:52:00,63.0,40.0,29.91,SW,235,3.0,12.0,42,-99.99,,,-99.99,,2013-03-31 18:52:00,
2013-03-31 14:03:00,65.0,47.0,29.90,WSW,245,10.0,18.0,51,-99.99,,,-99.99,,2013-03-31 19:03:00,
2013-03-31 14:12:00,64.0,41.0,29.90,SW,225,8.0,18.0,43,-99.99,,,-99.99,,2013-03-31 19:12:00,
2013-03-31 14:22:00,64.0,41.0,29.90,SW,225,8.0,18.0,43,-99.99,,,-99.99,,2013-03-31 19:22:00,
2013-03-31 14:33:00,65.0,46.0,29.91,West,260,9.0,18.0,50,-99.99,,,-99.99,,2013-03-31 19:33:00,
2013-03-31 14:42:00,65.0,45.0,29.90,WSW,250,10.0,15.0,47,-99.99,,,-99.99,,2013-03-31 19:42:00,
2013-03-31 14:53:00,65.0,45.0,29.90,WSW,250,10.0,15.0,47,-99.99,,,-99.99,,2013-03-31 19:53:00,
2013-03-31 15:03:00,65.0,42.0,29.90,West,265,10.0,15.0,42,-99.99,,,-99.99,,2013-03-31 20:03:00,
2013-03-31 15:12:00,65.0,42.0,29.90,West,270,9.0,14.0,43,-99.99,,,-99.99,,2013-03-31 20:12:00,
2013-03-31 15:22:00,65.0,42.0,29.90,West,270,9.0,14.0,43,-99.99,,,-99.99,,2013-03-31 20:22:00,
2013-03-31 15:33:00,66.0,43.0,29.90,NW,315,5.0,10.0,44,-99.99,,,-99.99,,2013-03-31 20:33:00,
2013-03-31 15:43:00,66.0,40.0,29.90,NW,310,7.0,11.0,39,-99.99,,,-99.99,,2013-03-31 20:43:00,
2013-03-31 15:52:00,66.0,40.0,29.90,NW,310,7.0,11.0,39,-99.99,,,-99.99,,2013-03-31 20:52:00,
2013-03-31 16:00:00,68.0,38.0,29.88,NW,305,9.0,17.0,33,-99.99,,,-99.99,,2013-03-31 21:00:00,
2013-03-31 16:02:00,67.0,40.0,29.89,NNW,330,10.0,17.0,37,-99.99,,,-99.99,,2013-03-31 21:02:00,
2013-03-31 16:12:00,67.0,38.0,29.89,WNW,290,10.0,19.0,35,-99.99,,,-99.99,,2013-03-31 21:12:00,
2013-03-31 16:22:00,67.0,38.0,29.89,WNW,290,10.0,19.0,35,-99.99,,,-99.99,,2013-03-31 21:22:00,
2013-03-31 16:34:00,67.0,38.0,29.89,WNW,295,12.0,23.0,34,-99.99,,,-99.99,,2013-03-31 21:34:00,
2013-03-31 16:43:00,68.0,38.0,29.88,NW,305,9.0,17.0,33,-99.99,,,-99.99,,2013-03-31 21:43:00,
2013-03-31 16:53:00,68.0,38.0,29.88,NW,305,9.0,17.0,33,-99.99,,,-99.99,,2013-03-31 21:53:00,
2013-03-31 17:13:00,66.0,38.0,29.89,NW,320,7.0,19.0,36,-99.99,,,-99.99,,2013-03-31 22:13:00,
2013-03-31 17:23:00,66.0,38.0,29.89,NW,320,7.0,19.0,36,-99.99,,,-99.99,,2013-03-31 22:23:00,
2013-03-31 17:33:00,67.0,38.0,29.88,NW,310,6.0,9.0,35,-99.99,,,-99.99,,2013-03-31 22:33:00,
2013-03-31 17:42:00,67.0,35.0,29.88,NW,310,12.0,19.0,30,-99.99,,,-99.99,,2013-03-31 22:42:00,
2013-03-31 17:53:00,67.0,35.0,29.88,NW,310,12.0,19.0,30,-99.99,,,-99.99,,2013-03-31 22:53:00,
2013-03-31 18:03:00,65.0,38.0,29.89,West,275,8.0,15.0,37,-99.99,,,-99.99,,2013-03-31 23:03:00,
2013-03-31 18:13:00,65.0,41.0,29.88,WNW,285,5.0,15.0,40,-99.99,,,-99.99,,2013-03-31 23:13:00,
2013-03-31 18:22:00,65.0,41.0,29.88,WNW,285,5.0,15.0,40,-99.99,,,-99.99,,2013-03-31 23:22:00,
2013-03-31 18:30:00,66.0,37.0,29.88,NW,310,10.0,18.0,35,-99.99,,,-99.99,,2013-03-31 23:30:00,
2013-03-31 18:32:00,66.0,40.0,29.88,West,280,8.0,11.0,38,-99.99,,,-99.99,,2013-03-31 23:32:00,
2013-03-31 18:42:00,66.0,39.0,29.88,WNW,290,10.0,21.0,37,-99.99,,,-99.99,,2013-03-31 23:42:00,
2013-03-31 18:53:00,66.0,39.0,29.88,WNW,290,10.0,21.0,37,-99.99,,,-99.99,,2013-03-31 23:53:00,
2013-03-31 19:02:00,66.0,39.0,29.88,NW,305,8.0,14.0,36,-99.99,,,-99.99,,2013-04-01 00:02:00,
2013-03-31 19:12:00,66.0,37.0,29.88,NW,310,10.0,18.0,35,-99.99,,,-99.99,,2013-04-01 00:12:00,
2013-03-31 19:22:00,66.0,37.0,29.88,NW,310,10.0,18.0,35,-99.99,,,-99.99,,2013-04-01 00:22:00,
2013-03-31 20:03:00,63.0,37.0,29.88,West,280,6.0,11.0,38,-99.99,,,-99.99,,2013-04-01 01:03:00,
2013-03-31 20:12:00,63.0,39.0,29.88,NW,305,4.0,10.0,41,-99.99,,,-99.99,,2013-04-01 01:12:00,
2013-03-31 20:22:00,63.0,39.0,29.88,NW,305,4.0,10.0,41,-99.99,,,-99.99,,2013-04-01 01:22:00,
2013-03-31 20:32:00,62.0,38.0,29.88,WNW,285,4.0,6.0,41,-99.99,,,-99.99,,2013-04-01 01:32:00,
2013-03-31 20:42:00,62.0,38.0,29.88,West,280,4.0,5.0,42,-99.99,,,-99.99,,2013-04-01 01:42:00,
2013-03-31 20:52:00,62.0,38.0,29.88,West,280,4.0,5.0,42,-99.99,,,-99.99,,2013-04-01 01:52:00,
2013-03-31 21:03:00,61.0,39.0,29.89,WNW,290,2.0,4.0,44,-99.99,,,-99.99,,2013-04-01 02:03:00,
2013-03-31 21:12:00,61.0,40.0,29.89,WNW,290,3.0,5.0,45,-99.99,,,-99.99,,2013-04-01 02:12:00,
2013-03-31 21:22:00,61.0,40.0,29.89,WNW,290,3.0,5.0,45,-99.99,,,-99.99,,2013-04-01 02:22:00,
2013-03-31 21:33:00,60.0,40.0,29.90,WNW,295,4.0,5.0,47,-99.99,,,-99.99,,2013-04-01 02:33:00,
2013-03-31 21:42:00,60.0,40.0,29.90,NW,320,4.0,7.0,48,-99.99,,,-99.99,,2013-04-01 02:42:00,
2013-03-31 21:52:00,60.0,40.0,29.90,NW,320,4.0,7.0,48,-99.99,,,-99.99,,2013-04-01 02:52:00,
2013-03-31 22:03:00,60.0,41.0,29.92,NNE,15,13.0,21.0,51,-99.99,,,-99.99,,2013-04-01 03:03:00,
2013-03-31 22:12:00,59.0,42.0,29.92,NNE,25,11.0,15.0,52,-99.99,,,-99.99,,2013-04-01 03:12:00,
2013-03-31 22:22:00,59.0,42.0,29.92,NNE,25,11.0,15.0,52,-99.99,,,-99.99,,2013-04-01 03:22:00,
2013-03-31 22:34:00,59.0,41.0,29.92,NNE,25,10.0,14.0,52,-99.99,,,-99.99,,2013-04-01 03:34:00,
2013-03-31 22:43:00,58.0,41.0,29.92,NNE,20,9.0,13.0,53,-99.99,,,-99.99,,2013-04-01 03:43:00,
2013-03-31 22:53:00,58.0,41.0,29.92,NNE,20,9.0,13.0,53,-99.99,,,-99.99,,2013-04-01 03:53:00,
2013-03-31 23:03:00,57.0,39.0,29.93,North,5,8.0,14.0,50,-99.99,,,-99.99,,2013-04-01 04:03:00,
2013-03-31 23:14:00,57.0,39.0,29.93,North,10,7.0,11.0,51,-99.99,,,-99.99,,2013-04-01 04:14:00,
2013-03-31 23:23:00,57.0,39.0,29.93,North,10,7.0,11.0,51,-99.99,,,-99.99,,2013-04-01 04:23:00,
2013-03-31 23:33:00,56.0,39.0,29.93,North,0,3.0,5.0,52,-99.99,,,-99.99,,2013-04-01 04:33:00,
2013-03-31 23:43:00,56.0,39.0,29.93,WNW,290,1.0,3.0,52,-99.99,,,-99.99,,2013-04-01 04:43:00,
2013-03-31 23:53:00,56.0,39.0,29.93,WNW,290,1.0,3.0,52,-99.99,,,-99.99,,2013-04-01 04:53:00,